Time;durP1;ratioP1;P1;durP2;ratioP2;P2;SDS_P1;SDS_P2;PMS_P1;PMS_P2;Temp;Humidity;BMP_temperature;BMP_pressure;BME280_temperature;BME280_humidity;BME280_pressure;Samples;Min_cycle;Max_cycle;Signal;HPM_P1;HPM_P2
2022/02/16 00:44:57;;;;;;;2.93;1.80;;;6.40;1.00;;;;;;5072433;28;20181;-72
2022/02/16 00:47:24;;;;;;;4.13;2.53;;;6.40;1.00;;;;;;5072067;28;20613;-72
2022/02/16 00:49:51;;;;;;;3.73;1.93;;;6.40;1.00;;;;;;5070253;28;20656;-73
2022/02/16 00:52:20;;;;;;;4.53;2.00;;;6.40;1.00;;;;;;5068637;28;20206;-73
2022/02/16 00:54:47;;;;;;;3.57;1.90;;;6.40;1.00;;;;;;5070385;28;20281;-70
2022/02/16 00:57:16;;;;;;;2.90;2.30;;;6.50;1.00;;;;;;5063411;28;20237;-71
2022/02/16 00:59:43;;;;;;;2.43;1.90;;;6.50;1.00;;;;;;5052931;28;20642;-72
2022/02/16 01:02:12;;;;;;;4.53;2.27;;;6.50;1.00;;;;;;5051830;28;20203;-72
2022/02/16 01:04:38;;;;;;;2.07;1.70;;;6.50;1.00;;;;;;5056634;28;20207;-72
2022/02/16 01:07:05;;;;;;;11.33;2.03;;;6.40;1.00;;;;;;5057440;28;20252;-72
2022/02/16 01:09:33;;;;;;;2.87;1.67;;;6.50;1.00;;;;;;5053554;28;20231;-72
2022/02/16 01:12:00;;;;;;;1.83;1.67;;;6.50;1.00;;;;;;5049546;28;20270;-72
2022/02/16 01:14:27;;;;;;;3.13;1.77;;;6.50;1.00;;;;;;5051003;28;20206;-72
2022/02/16 01:16:54;;;;;;;2.37;1.77;;;6.50;1.00;;;;;;5050393;28;20210;-72
2022/02/16 01:19:23;;;;;;;2.13;1.70;;;6.50;1.00;;;;;;5051738;28;20269;-73
2022/02/16 01:21:50;;;;;;;2.47;1.53;;;6.50;1.00;;;;;;5049020;28;20226;-72
2022/02/16 01:24:17;;;;;;;3.97;1.90;;;6.50;1.00;;;;;;5051061;28;20536;-72
2022/02/16 01:26:44;;;;;;;2.93;1.80;;;6.50;1.00;;;;;;5049759;28;20656;-72
2022/02/16 01:29:11;;;;;;;5.10;2.20;;;6.50;1.00;;;;;;5057978;28;20251;-72
2022/02/16 01:31:38;;;;;;;2.00;1.77;;;6.50;1.00;;;;;;5054517;28;20203;-73
2022/02/16 01:34:05;;;;;;;2.00;1.80;;;6.60;1.00;;;;;;5048871;28;20222;-72
2022/02/16 01:36:34;;;;;;;2.30;1.80;;;6.60;1.00;;;;;;5050814;28;20203;-72
2022/02/16 01:39:01;;;;;;;1.60;1.50;;;6.50;1.00;;;;;;5050719;28;20199;-69
2022/02/16 01:41:28;;;;;;;1.57;1.47;;;6.60;1.00;;;;;;5049486;28;20703;-70
2022/02/16 01:43:55;;;;;;;4.77;1.87;;;6.70;1.00;;;;;;5050323;28;20195;-70
2022/02/16 01:46:22;;;;;;;3.90;1.63;;;6.60;1.00;;;;;;5048454;28;20199;-70
2022/02/16 01:48:49;;;;;;;2.97;1.80;;;6.70;1.00;;;;;;5051017;28;20629;-70
2022/02/16 01:51:17;;;;;;;2.63;1.47;;;6.70;1.00;;;;;;5049033;28;20199;-70
2022/02/16 01:53:46;;;;;;;1.80;1.70;;;6.80;1.00;;;;;;5049834;28;20203;-71
2022/02/16 01:56:14;;;;;;;4.80;1.40;;;6.80;1.00;;;;;;5062140;28;20281;-70
2022/02/16 01:58:42;;;;;;;1.60;1.43;;;6.80;1.00;;;;;;5049727;28;20218;-70
2022/02/16 02:01:09;;;;;;;2.60;1.53;;;6.80;1.00;;;;;;5049982;28;20226;-70
2022/02/16 02:03:37;;;;;;;3.53;2.20;;;6.80;1.00;;;;;;5050451;28;20207;-70
2022/02/16 02:06:04;;;;;;;2.77;1.53;;;6.80;99.90;;;;;;5050477;28;20199;-70
2022/02/16 02:08:31;;;;;;;2.47;1.90;;;6.80;99.90;;;;;;5050137;28;20226;-70
2022/02/16 02:10:59;;;;;;;3.20;1.70;;;6.90;99.90;;;;;;5050515;28;20226;-67
2022/02/16 02:13:27;;;;;;;2.03;1.43;;;6.90;99.90;;;;;;5050866;28;20199;-67
2022/02/16 02:15:54;;;;;;;3.60;1.60;;;6.90;99.90;;;;;;5048939;28;20207;-67
2022/02/16 02:18:22;;;;;;;1.47;1.37;;;6.90;99.90;;;;;;5050967;28;20199;-67
2022/02/16 02:20:51;;;;;;;4.40;1.80;;;6.90;99.90;;;;;;5048493;28;20250;-67
2022/02/16 02:23:18;;;;;;;2.27;1.30;;;7.00;1.00;;;;;;5049644;28;20199;-67
2022/02/16 02:25:49;;;;;;;1.70;1.60;;;6.90;40.30;;;;;;5048986;28;20643;-68
2022/02/16 02:28:17;;;;;;;2.07;1.47;;;6.90;1.00;;;;;;5031831;28;20530;-68
2022/02/16 02:30:44;;;;;;;1.50;1.40;;;7.00;1.00;;;;;;5049988;28;20207;-67
2022/02/16 02:33:11;;;;;;;1.83;1.60;;;7.00;28.20;;;;;;5048472;28;20195;-67
2022/02/16 02:35:38;;;;;;;3.23;1.70;;;7.00;1.00;;;;;;5049657;28;20230;-67
2022/02/16 02:38:07;;;;;;;1.60;1.50;;;6.90;99.90;;;;;;5049711;28;20615;-67
2022/02/16 02:40:34;;;;;;;3.73;1.60;;;7.00;99.90;;;;;;5049904;28;20269;-67
2022/02/16 02:43:01;;;;;;;1.90;1.27;;;6.90;99.90;;;;;;5049765;28;20296;-67
2022/02/16 02:45:28;;;;;;;2.47;1.63;;;7.00;35.50;;;;;;5049148;28;20206;-67
2022/02/16 02:47:55;;;;;;;2.03;1.80;;;7.00;1.00;;;;;;5050131;28;20191;-67
2022/02/16 02:50:22;;;;;;;2.37;1.40;;;7.00;1.00;;;;;;5048384;28;20199;-67
2022/02/16 02:52:49;;;;;;;1.80;1.53;;;6.90;99.90;;;;;;5048973;28;20641;-67
2022/02/16 02:55:19;;;;;;;2.63;1.47;;;6.90;99.90;;;;;;5066525;28;20194;-67
2022/02/16 02:57:46;;;;;;;1.77;1.40;;;6.90;99.90;;;;;;5049509;28;20211;-67
2022/02/16 03:00:15;;;;;;;1.70;1.43;;;6.90;99.90;;;;;;5048141;28;20202;-67
2022/02/16 03:02:42;;;;;;;1.63;1.53;;;6.80;1.00;;;;;;5050349;28;20194;-67
2022/02/16 03:05:11;;;;;;;2.57;1.63;;;6.90;99.90;;;;;;5048257;28;20529;-67
2022/02/16 03:07:38;;;;;;;2.93;1.90;;;6.90;99.90;;;;;;5050732;28;20661;-67
2022/02/16 03:10:07;;;;;;;1.93;1.70;;;6.90;1.00;;;;;;5049414;28;20261;-67
2022/02/16 03:12:35;;;;;;;1.70;1.60;;;6.90;1.00;;;;;;5049073;28;20652;-67
2022/02/16 03:15:02;;;;;;;1.87;1.40;;;6.90;99.90;;;;;;5046765;28;20537;-67
2022/02/16 03:17:29;;;;;;;2.87;1.60;;;6.90;99.90;;;;;;5049660;28;20210;-67
2022/02/16 03:19:56;;;;;;;1.77;1.60;;;6.90;99.90;;;;;;5048815;28;20355;-67
2022/02/16 03:22:24;;;;;;;3.73;1.70;;;6.90;99.90;;;;;;5049160;28;20273;-67
2022/02/16 03:24:51;;;;;;;2.00;1.43;;;6.90;99.90;;;;;;5047864;28;20203;-67
2022/02/16 03:27:18;;;;;;;2.57;1.53;;;6.90;99.90;;;;;;5049310;28;20195;-67
2022/02/16 03:29:46;;;;;;;1.60;1.50;;;6.90;99.90;;;;;;5053860;28;20195;-67
2022/02/16 03:32:13;;;;;;;3.47;1.60;;;6.90;99.90;;;;;;5053875;28;20253;-67
2022/02/16 03:34:40;;;;;;;2.23;1.40;;;7.00;96.80;;;;;;5053354;28;20392;-67
2022/02/16 03:37:08;;;;;;;1.27;1.20;;;7.00;1.00;;;;;;5053367;28;20250;-67
2022/02/16 03:39:35;;;;;;;1.53;1.43;;;7.00;1.00;;;;;;5053385;28;20219;-67
2022/02/16 03:42:02;;;;;;;1.07;1.03;;;7.00;1.00;;;;;;5053386;28;20297;-67
2022/02/16 03:44:30;;;;;;;2.23;1.43;;;7.00;1.00;;;;;;5053483;28;20397;-67
2022/02/16 03:46:58;;;;;;;1.47;1.23;;;7.00;1.00;;;;;;5051887;28;20194;-67
2022/02/16 03:49:26;;;;;;;1.50;1.40;;;7.10;1.00;;;;;;5053174;28;20203;-67
2022/02/16 03:51:53;;;;;;;2.27;1.40;;;7.10;1.00;;;;;;5053354;28;20257;-67
2022/02/16 03:54:20;;;;;;;3.07;1.40;;;7.00;1.00;;;;;;5052990;28;20254;-67
2022/02/16 03:56:47;;;;;;;2.37;1.40;;;7.10;1.00;;;;;;5052966;28;20665;-67
2022/02/16 03:59:14;;;;;;;1.47;1.23;;;7.10;1.00;;;;;;5052201;28;20227;-67
2022/02/16 04:01:41;;;;;;;3.70;1.50;;;7.00;1.00;;;;;;5053164;28;20227;-67
2022/02/16 04:04:09;;;;;;;2.73;1.40;;;7.10;1.00;;;;;;5052946;28;20560;-67
2022/02/16 04:06:37;;;;;;;1.43;1.33;;;7.20;1.00;;;;;;5053342;28;20276;-67
2022/02/16 04:09:04;;;;;;;2.07;1.30;;;7.20;1.00;;;;;;5053084;28;20223;-67
2022/02/16 04:11:31;;;;;;;2.70;1.70;;;7.10;1.00;;;;;;5053381;28;20219;-67
2022/02/16 04:13:58;;;;;;;1.20;1.10;;;7.10;1.00;;;;;;5053059;28;20210;-67
2022/02/16 04:16:25;;;;;;;1.73;1.20;;;7.20;1.00;;;;;;5053098;28;20545;-67
2022/02/16 04:18:52;;;;;;;1.50;1.40;;;7.20;1.00;;;;;;5052848;28;20225;-67
2022/02/16 04:21:21;;;;;;;1.50;1.40;;;7.20;1.00;;;;;;5052896;28;20222;-67
2022/02/16 04:23:48;;;;;;;1.47;1.30;;;7.20;1.00;;;;;;5052872;28;20723;-67
2022/02/16 04:26:15;;;;;;;2.50;1.50;;;7.20;1.00;;;;;;5052765;28;20265;-67
2022/02/16 04:28:42;;;;;;;1.40;1.30;;;7.20;1.00;;;;;;5052165;28;20590;-67
2022/02/16 04:31:09;;;;;;;1.33;1.20;;;7.20;1.00;;;;;;5052615;28;20280;-67
2022/02/16 04:33:36;;;;;;;1.10;1.10;;;7.20;1.00;;;;;;5052521;28;20198;-67
2022/02/16 04:36:03;;;;;;;1.37;1.20;;;7.20;1.00;;;;;;5052606;28;20203;-68
2022/02/16 04:38:32;;;;;;;3.13;2.60;;;7.30;1.00;;;;;;5052373;28;20250;-67
2022/02/16 04:40:59;;;;;;;6.27;3.00;;;7.30;1.00;;;;;;5052187;28;20199;-67
2022/02/16 04:43:26;;;;;;;1.60;1.37;;;7.30;1.00;;;;;;5052779;28;20265;-67
2022/02/16 04:45:53;;;;;;;1.13;1.07;;;7.30;1.00;;;;;;5052586;28;20393;-67
2022/02/16 04:48:21;;;;;;;1.73;1.10;;;7.20;1.00;;;;;;5052626;28;20199;-67
2022/02/16 04:50:48;;;;;;;1.00;1.00;;;7.20;1.00;;;;;;5052921;28;20708;-67
2022/02/16 04:53:15;;;;;;;1.53;0.90;;;7.20;93.10;;;;;;5052795;28;20725;-67
2022/02/16 04:55:43;;;;;;;1.30;1.20;;;7.20;30.30;;;;;;5052252;28;20645;-67
2022/02/16 04:58:10;;;;;;;1.30;1.20;;;7.30;97.60;;;;;;5052663;28;20195;-67
2022/02/16 05:00:37;;;;;;;1.47;1.00;;;7.10;99.90;;;;;;5052562;28;20253;-68
2022/02/16 05:03:04;;;;;;;0.87;0.80;;;7.20;99.90;;;;;;5052347;28;20226;-67
2022/02/16 05:05:31;;;;;;;1.30;1.20;;;7.10;99.90;;;;;;5072188;28;20203;-68
2022/02/16 05:07:58;;;;;;;2.93;1.23;;;7.20;99.90;;;;;;5072451;28;20195;-67
2022/02/16 05:10:25;;;;;;;1.10;1.00;;;7.10;1.00;;;;;;5071958;28;20233;-67
2022/02/16 05:12:53;;;;;;;1.37;1.13;;;7.10;1.00;;;;;;5072454;28;20603;-67
2022/02/16 05:15:21;;;;;;;1.03;0.93;;;7.10;1.00;;;;;;5070632;28;20608;-67
2022/02/16 05:17:48;;;;;;;1.20;1.10;;;7.10;1.00;;;;;;5050587;28;20204;-68
2022/02/16 05:20:15;;;;;;;1.10;1.00;;;7.10;1.00;;;;;;5051852;28;20211;-67
2022/02/16 05:22:42;;;;;;;1.03;0.93;;;7.10;1.00;;;;;;5053292;28;20746;-67
2022/02/16 05:25:09;;;;;;;1.23;1.13;;;7.10;1.00;;;;;;5051823;28;20222;-67
2022/02/16 05:27:36;;;;;;;2.70;2.00;;;7.10;1.00;;;;;;5065701;28;20252;-67
2022/02/16 05:30:05;;;;;;;4.30;2.40;;;7.10;1.00;;;;;;5057116;28;20195;-67
2022/02/16 05:32:33;;;;;;;2.77;1.40;;;7.10;1.00;;;;;;5050990;28;20264;-67
2022/02/16 05:35:00;;;;;;;1.30;1.07;;;7.10;1.00;;;;;;5050826;28;20200;-73
2022/02/16 05:37:27;;;;;;;1.33;1.10;;;7.00;1.00;;;;;;5050957;28;20252;-73
2022/02/16 05:39:54;;;;;;;1.60;1.17;;;7.00;1.00;;;;;;5052470;28;20364;-73
2022/02/16 05:42:21;;;;;;;1.50;1.30;;;7.10;1.00;;;;;;5063357;28;20641;-73
2022/02/16 05:44:48;;;;;;;1.30;1.20;;;7.00;1.00;;;;;;5069874;28;20224;-73
2022/02/16 05:47:17;;;;;;;2.23;1.63;;;7.10;1.00;;;;;;5053056;28;20218;-73
2022/02/16 05:49:44;;;;;;;1.20;1.10;;;7.20;1.00;;;;;;5069248;28;20671;-74
2022/02/16 05:52:12;;;;;;;1.73;1.10;;;7.20;1.00;;;;;;5054409;28;20211;-73
2022/02/16 05:54:40;;;;;;;1.30;1.20;;;7.30;99.90;;;;;;5051058;28;20502;-73
2022/02/16 05:57:07;;;;;;;2.07;1.10;;;7.30;82.30;;;;;;5050108;28;20257;-73
2022/02/16 05:59:35;;;;;;;1.40;1.30;;;7.30;90.00;;;;;;5050562;28;20609;-73
2022/02/16 06:02:04;;;;;;;2.17;1.30;;;7.30;99.90;;;;;;5049781;28;20226;-73
2022/02/16 06:04:33;;;;;;;1.20;1.10;;;7.30;99.90;;;;;;5050648;28;20203;-73
2022/02/16 06:07:00;;;;;;;2.03;1.30;;;7.30;99.90;;;;;;5050166;28;20262;-73
2022/02/16 06:09:28;;;;;;;1.37;1.00;;;7.40;99.90;;;;;;5050660;28;20286;-74
2022/02/16 06:11:55;;;;;;;1.50;1.40;;;7.30;99.90;;;;;;5049877;28;20215;-73
2022/02/16 06:14:22;;;;;;;1.27;1.07;;;7.40;99.90;;;;;;5050052;28;20203;-73
2022/02/16 06:16:49;;;;;;;2.53;1.20;;;7.30;99.90;;;;;;5049895;28;20207;-73
2022/02/16 06:19:16;;;;;;;1.57;1.37;;;7.40;99.90;;;;;;5069824;28;20197;-74
2022/02/16 06:21:44;;;;;;;2.00;1.20;;;7.30;99.90;;;;;;5057033;28;20653;-73
2022/02/16 06:24:12;;;;;;;1.30;1.20;;;7.30;1.00;;;;;;5051029;28;20290;-74
2022/02/16 06:26:39;;;;;;;1.67;1.50;;;7.40;99.90;;;;;;5049907;28;20551;-74
2022/02/16 06:29:06;;;;;;;2.43;1.40;;;7.40;1.00;;;;;;5060821;28;20196;-73
2022/02/16 06:31:33;;;;;;;1.30;1.20;;;7.40;99.90;;;;;;5065860;28;20267;-73
2022/02/16 06:34:00;;;;;;;1.47;0.80;;;7.40;99.90;;;;;;5050697;28;20245;-74
2022/02/16 06:36:27;;;;;;;0.83;0.83;;;7.40;1.00;;;;;;5049369;28;20249;-73
2022/02/16 06:38:55;;;;;;;1.40;1.20;;;7.40;99.90;;;;;;5048976;28;20281;-73
2022/02/16 06:41:22;;;;;;;1.67;1.57;;;7.40;99.90;;;;;;5048223;28;20700;-74
2022/02/16 06:43:50;;;;;;;1.30;1.20;;;7.50;99.90;;;;;;5050596;28;20223;-73
2022/02/16 06:46:16;;;;;;;1.30;1.20;;;7.50;85.70;;;;;;5050277;28;20207;-73
2022/02/16 06:48:44;;;;;;;1.40;0.90;;;7.50;99.90;;;;;;5049387;28;20618;-74
2022/02/16 06:51:11;;;;;;;1.90;1.00;;;7.60;1.00;;;;;;5049066;28;20203;-73
2022/02/16 06:53:38;;;;;;;1.63;1.40;;;7.60;1.00;;;;;;5049640;28;20195;-73
2022/02/16 06:56:06;;;;;;;1.50;0.90;;;7.70;1.00;;;;;;5050499;28;20664;-74
2022/02/16 06:58:34;;;;;;;1.43;1.20;;;7.70;1.00;;;;;;5050537;28;20203;-74
2022/02/16 07:01:01;;;;;;;1.67;1.00;;;7.60;1.00;;;;;;5049748;28;20207;-74
2022/02/16 07:03:28;;;;;;;1.30;1.00;;;7.60;1.00;;;;;;5052356;28;20226;-74
2022/02/16 07:05:55;;;;;;;4.23;1.20;;;7.60;1.00;;;;;;5052692;28;20684;-74
2022/02/16 07:08:23;;;;;;;0.87;0.83;;;7.70;1.00;;;;;;5053747;28;20233;-73
2022/02/16 07:10:50;;;;;;;0.80;0.80;;;7.70;1.00;;;;;;5053575;28;20215;-74
2022/02/16 07:13:18;;;;;;;1.83;0.90;;;7.70;1.00;;;;;;5053328;28;20618;-73
2022/02/16 07:15:45;;;;;;;1.20;1.10;;;7.70;1.00;;;;;;5054139;28;20257;-73
2022/02/16 07:18:12;;;;;;;1.03;0.97;;;7.70;1.00;;;;;;5053010;28;20199;-74
2022/02/16 07:20:39;;;;;;;1.63;1.10;;;7.70;1.00;;;;;;5052910;28;20210;-74
2022/02/16 07:23:07;;;;;;;1.10;1.00;;;7.70;5.90;;;;;;5053370;28;20234;-73
2022/02/16 07:25:34;;;;;;;2.27;1.40;;;7.80;1.00;;;;;;5052758;28;20209;-73
2022/02/16 07:28:02;;;;;;;0.83;0.83;;;7.80;1.00;;;;;;5052674;28;20684;-74
2022/02/16 07:30:31;;;;;;;1.33;0.90;;;7.90;1.00;;;;;;5073555;28;20211;-74
2022/02/16 07:32:58;;;;;;;1.20;1.10;;;7.90;1.00;;;;;;5073190;28;20275;-74
2022/02/16 07:35:25;;;;;;;2.20;1.30;;;8.00;1.00;;;;;;5070959;28;20645;-74
2022/02/16 07:37:53;;;;;;;1.20;1.10;;;8.00;1.00;;;;;;5032539;28;20548;-74
2022/02/16 07:40:20;;;;;;;1.80;1.03;;;8.10;99.90;;;;;;5033012;28;20226;-74
2022/02/16 07:42:47;;;;;;;1.53;1.10;;;8.10;99.90;;;;;;5053154;28;20227;-74
2022/02/16 07:45:14;;;;;;;1.00;0.90;;;8.10;99.90;;;;;;5053018;28;20218;-74
2022/02/16 07:47:43;;;;;;;1.87;1.03;;;8.10;1.00;;;;;;5032669;28;20258;-74
2022/02/16 07:50:10;;;;;;;1.77;1.37;;;8.00;1.00;;;;;;5032585;28;20379;-74
2022/02/16 07:52:38;;;;;;;1.43;1.30;;;7.90;99.90;;;;;;5050511;28;20203;-73
2022/02/16 07:55:07;;;;;;;4.60;2.17;;;7.90;99.90;;;;;;5051683;28;20198;-74
2022/02/16 07:57:34;;;;;;;2.23;1.50;;;7.90;99.90;;;;;;5053453;28;20203;-74
2022/02/16 08:00:01;;;;;;;1.87;1.63;;;7.90;99.90;;;;;;5051066;28;20253;-74
2022/02/16 08:02:29;;;;;;;1.13;1.03;;;7.90;99.90;;;;;;5052915;28;20634;-73
2022/02/16 08:04:58;;;;;;;1.27;1.03;;;7.80;1.00;;;;;;5053319;28;20213;-74
2022/02/16 08:07:25;;;;;;;2.07;1.60;;;7.90;1.00;;;;;;5051323;28;20242;-74
2022/02/16 08:09:53;;;;;;;1.17;1.07;;;7.90;1.00;;;;;;5052066;28;20199;-74
2022/02/16 08:12:20;;;;;;;1.53;1.10;;;7.90;1.00;;;;;;5052491;28;20297;-74
2022/02/16 08:14:47;;;;;;;1.20;0.87;;;7.90;1.00;;;;;;5052755;28;20541;-73
2022/02/16 08:17:14;;;;;;;1.10;1.00;;;7.90;1.00;;;;;;5051466;28;20203;-74
2022/02/16 08:19:41;;;;;;;1.03;1.00;;;7.90;1.00;;;;;;5051798;28;20565;-74
2022/02/16 08:22:10;;;;;;;2.63;1.70;;;7.90;1.00;;;;;;5051126;28;20206;-74
2022/02/16 08:24:37;;;;;;;3.80;2.13;;;7.80;1.00;;;;;;5051880;28;20234;-74
2022/02/16 08:27:04;;;;;;;6.93;2.37;;;7.80;1.00;;;;;;5059350;28;20221;-74
2022/02/16 08:29:32;;;;;;;4.73;2.63;;;7.80;1.00;;;;;;5051493;28;20211;-74
2022/02/16 08:31:59;;;;;;;2.20;1.00;;;7.70;1.00;;;;;;5052802;28;20207;-74
2022/02/16 08:34:26;;;;;;;4.00;2.13;;;7.80;1.00;;;;;;5051607;28;20207;-74
2022/02/16 08:36:55;;;;;;;1.70;1.07;;;8.00;1.00;;;;;;5052594;28;20269;-74
2022/02/16 08:39:26;;;;;;;1.43;1.10;;;8.10;1.00;;;;;;5066881;28;20218;-74
2022/02/16 08:41:53;;;;;;;1.07;1.07;;;8.10;1.00;;;;;;5050751;28;20645;-74
2022/02/16 08:44:21;;;;;;;2.40;1.40;;;8.20;1.00;;;;;;5051528;28;20223;-74
2022/02/16 08:46:47;;;;;;;2.60;1.40;;;8.30;1.00;;;;;;5052384;28;20199;-74
2022/02/16 08:49:15;;;;;;;1.23;0.90;;;8.30;1.00;;;;;;5051138;28;20199;-74
2022/02/16 08:51:42;;;;;;;0.87;0.80;;;8.40;1.00;;;;;;5049422;28;20207;-74
2022/02/16 08:54:09;;;;;;;1.53;0.80;;;8.50;99.90;;;;;;5051106;28;20613;-74
2022/02/16 08:56:38;;;;;;;1.63;1.00;;;8.50;99.90;;;;;;5051155;28;20207;-74
2022/02/16 08:59:05;;;;;;;0.93;0.80;;;8.60;1.00;;;;;;5052301;28;20203;-73
2022/02/16 09:01:33;;;;;;;0.67;0.60;;;8.60;99.90;;;;;;5052186;28;20235;-74
2022/02/16 09:04:00;;;;;;;0.70;0.70;;;8.70;99.90;;;;;;5052419;28;20233;-74
2022/02/16 09:06:28;;;;;;;2.23;0.63;;;8.70;26.10;;;;;;5058269;28;20210;-74
2022/02/16 09:08:55;;;;;;;1.40;0.97;;;8.70;99.90;;;;;;5052406;28;20211;-74
2022/02/16 09:11:22;;;;;;;0.50;0.50;;;8.70;99.90;;;;;;5052149;28;20215;-74
2022/02/16 09:13:50;;;;;;;0.80;0.80;;;8.60;1.00;;;;;;5052096;28;20529;-74
2022/02/16 09:16:17;;;;;;;0.70;0.70;;;8.60;1.00;;;;;;5051091;28;20268;-74
2022/02/16 09:18:44;;;;;;;0.73;0.60;;;8.50;1.00;;;;;;5052796;28;20272;-74
2022/02/16 09:21:11;;;;;;;1.23;1.10;;;8.40;1.00;;;;;;5051063;28;20277;-74
2022/02/16 09:23:40;;;;;;;2.27;1.10;;;8.40;1.00;;;;;;5052264;28;20223;-74
2022/02/16 09:26:08;;;;;;;2.40;0.80;;;8.40;1.00;;;;;;5050272;28;20234;-74
2022/02/16 09:28:36;;;;;;;0.80;0.80;;;8.50;1.00;;;;;;5050470;28;20750;-74
2022/02/16 09:31:05;;;;;;;0.57;0.57;;;8.40;1.00;;;;;;5049227;28;20264;-74
2022/02/16 09:33:32;;;;;;;0.80;0.80;;;8.50;18.70;;;;;;5050508;28;20290;-74
2022/02/16 09:35:59;;;;;;;0.73;0.73;;;8.50;88.20;;;;;;5051616;28;20249;-74
2022/02/16 09:38:26;;;;;;;1.30;0.50;;;8.50;99.90;;;;;;5051566;28;20198;-74
2022/02/16 09:40:54;;;;;;;0.60;0.60;;;8.60;99.90;;;;;;5050906;28;20210;-74
2022/02/16 09:43:23;;;;;;;0.87;0.70;;;8.70;99.90;;;;;;5051435;28;20650;-74
2022/02/16 09:45:53;;;;;;;0.67;0.67;;;8.80;99.90;;;;;;5051139;28;20727;-74
2022/02/16 09:48:22;;;;;;;0.73;0.60;;;9.00;99.90;;;;;;5051264;28;20294;-74
2022/02/16 09:50:50;;;;;;;0.70;0.70;;;9.20;99.90;;;;;;5050480;28;20214;-73
2022/02/16 09:53:17;;;;;;;2.00;0.73;;;9.20;99.90;;;;;;5051365;28;20245;-73
2022/02/16 09:55:44;;;;;;;0.80;0.70;;;9.10;99.90;;;;;;5049534;28;20198;-74
2022/02/16 09:58:11;;;;;;;0.50;0.50;;;9.30;99.90;;;;;;5050222;28;20245;-74
2022/02/16 10:00:59;;;;;;;0.60;0.60;;;9.30;73.50;;;;;;5051634;28;20249;-74
2022/02/16 10:03:27;;;;;;;1.23;0.70;;;9.20;1.00;;;;;;5051230;28;20594;-74
2022/02/16 10:05:54;;;;;;;0.83;0.57;;;9.30;1.00;;;;;;5051012;28;20256;-74
2022/02/16 10:08:40;;;;;;;0.60;0.60;;;9.30;1.00;;;;;;5051369;28;20207;-74
2022/02/16 10:11:08;;;;;;;0.63;0.63;;;9.30;1.00;;;;;;5051478;28;20202;-74
2022/02/16 10:13:35;;;;;;;0.50;0.40;;;9.30;1.00;;;;;;5051382;28;20199;-74
2022/02/16 10:16:03;;;;;;;0.40;0.40;;;9.30;1.00;;;;;;5051107;28;20211;-74
2022/02/16 10:18:31;;;;;;;0.57;0.40;;;9.30;1.00;;;;;;5051087;28;20199;-74
2022/02/16 10:21:09;;;;;;;0.20;0.20;;;9.30;1.00;;;;;;5051192;28;20207;-74
2022/02/16 10:23:43;;;;;;;2.30;0.67;;;9.40;1.00;;;;;;5051153;28;20223;-73
2022/02/16 10:26:11;;;;;;;0.30;0.30;;;9.30;33.70;;;;;;5050784;28;20245;-74
2022/02/16 10:28:42;;;;;;;0.40;0.40;;;9.40;99.90;;;;;;5051141;28;20211;-74
2022/02/16 10:31:11;;;;;;;0.30;0.30;;;9.50;99.90;;;;;;5050856;28;20245;-74
2022/02/16 10:33:41;;;;;;;0.50;0.40;;;9.50;99.90;;;;;;5051145;28;20206;-74
2022/02/16 10:36:11;;;;;;;0.33;0.33;;;9.50;99.90;;;;;;5050490;28;20211;-74
2022/02/16 10:38:53;;;;;;;0.30;0.30;;;9.50;99.90;;;;;;5051758;28;20257;-74
2022/02/16 10:41:22;;;;;;;0.40;0.37;;;9.50;99.90;;;;;;5050633;28;20317;-74
2022/02/16 10:43:50;;;;;;;1.20;0.43;;;9.60;99.90;;;;;;5050877;28;20219;-74
2022/02/16 10:46:20;;;;;;;0.30;0.30;;;9.60;99.90;;;;;;5050768;28;20721;-74
2022/02/16 10:48:49;;;;;;;0.40;0.40;;;9.70;99.90;;;;;;5051016;28;20203;-75
2022/02/16 10:51:18;;;;;;;0.40;0.30;;;9.70;99.90;;;;;;5050544;28;20221;-74
2022/02/16 10:53:47;;;;;;;0.40;0.40;;;9.80;99.90;;;;;;5050851;28;20238;-74
2022/02/16 10:56:14;;;;;;;0.60;0.30;;;9.80;99.90;;;;;;5050507;28;20210;-74
2022/02/16 10:58:41;;;;;;;0.20;0.20;;;9.90;99.90;;;;;;5050697;28;20199;-74
2022/02/16 11:01:11;;;;;;;0.50;0.50;;;9.90;99.90;;;;;;5051091;28;20203;-74
2022/02/16 11:03:43;;;;;;;0.63;0.53;;;10.00;99.90;;;;;;5050600;28;20273;-74
2022/02/16 11:06:14;;;;;;;0.13;0.13;;;10.00;99.90;;;;;;5050434;28;20285;-74
2022/02/16 11:08:43;;;;;;;0.83;0.23;;;10.00;53.20;;;;;;5050798;28;20745;-74
2022/02/16 11:11:14;;;;;;;0.43;0.37;;;10.10;1.00;;;;;;5050706;28;20691;-74
2022/02/16 11:13:42;;;;;;;0.37;0.20;;;10.10;1.00;;;;;;5050827;28;20624;-74
2022/02/16 11:16:10;;;;;;;0.40;0.30;;;10.00;1.00;;;;;;5050251;28;20199;-74
2022/02/16 11:18:47;;;;;;;0.30;0.30;;;10.10;1.00;;;;;;5050461;28;20199;-74
2022/02/16 11:21:17;;;;;;;0.20;0.20;;;10.10;1.00;;;;;;5050350;28;20209;-74
2022/02/16 11:23:47;;;;;;;0.50;0.50;;;10.00;1.00;;;;;;5050662;28;20230;-74
2022/02/16 11:26:31;;;;;;;0.20;0.20;;;10.10;28.30;;;;;;5050509;28;20215;-75
2022/02/16 11:28:59;;;;;;;0.20;0.20;;;10.20;1.00;;;;;;5048743;28;20257;-75
2022/02/16 11:31:28;;;;;;;0.10;0.10;;;10.20;1.00;;;;;;5050543;28;20199;-74
2022/02/16 11:34:16;;;;;;;0.20;0.20;;;10.30;1.00;;;;;;5050487;28;20258;-74
2022/02/16 11:36:50;;;;;;;0.40;0.33;;;10.50;1.00;;;;;;5050643;28;20645;-74
2022/02/16 11:39:43;;;;;;;0.90;0.37;;;10.50;1.00;;;;;;5050206;28;20199;-74
2022/02/16 11:42:13;;;;;;;0.27;0.27;;;10.60;1.00;;;;;;5050523;28;20342;-74
2022/02/16 11:45:03;;;;;;;1.03;0.30;;;10.70;1.00;;;;;;5050198;28;20692;-74
2022/02/16 11:47:54;;;;;;;0.20;0.20;;;10.70;1.00;;;;;;5042324;28;20211;-74
2022/02/16 11:50:38;;;;;;;0.23;0.23;;;10.80;1.00;;;;;;5052009;28;20195;-74
2022/02/16 11:53:09;;;;;;;0.30;0.30;;;10.70;1.00;;;;;;5055311;28;20203;-75
2022/02/16 11:55:37;;;;;;;0.50;0.37;;;10.70;1.00;;;;;;5051973;28;20274;-74
2022/02/16 11:58:19;;;;;;;0.40;0.33;;;10.80;1.00;;;;;;5052824;28;20544;-74
2022/02/16 12:01:00;;;;;;;0.40;0.40;;;10.70;1.00;;;;;;5051006;28;20641;-75
2022/02/16 12:03:36;;;;;;;0.23;0.23;;;10.70;1.00;;;;;;5039125;28;20245;-75
2022/02/16 12:06:09;;;;;;;0.23;0.23;;;10.70;1.00;;;;;;5052413;28;20207;-74
2022/02/16 12:08:42;;;;;;;0.40;0.30;;;10.70;1.00;;;;;;5052894;28;20209;-74
2022/02/16 12:11:22;;;;;;;1.13;0.23;;;10.70;1.00;;;;;;5052882;28;20313;-75
2022/02/16 12:13:52;;;;;;;0.57;0.40;;;10.70;1.00;;;;;;5052562;28;20199;-75
2022/02/16 12:16:24;;;;;;;0.20;0.20;;;10.70;1.00;;;;;;5052196;28;20203;-75
2022/02/16 12:18:52;;;;;;;0.40;0.40;;;10.70;1.00;;;;;;5051170;28;20315;-74
2022/02/16 12:21:28;;;;;;;0.43;0.43;;;10.70;1.00;;;;;;5051826;28;20661;-74
2022/02/16 12:24:00;;;;;;;0.80;0.30;;;10.80;1.00;;;;;;5050942;28;20230;-74
2022/02/16 12:26:34;;;;;;;0.43;0.43;;;10.80;19.60;;;;;;5051472;28;20235;-74
2022/02/16 12:29:03;;;;;;;0.70;0.50;;;10.80;22.10;;;;;;5053097;28;20676;-75
2022/02/16 12:31:34;;;;;;;0.40;0.40;;;10.90;1.00;;;;;;5052355;28;20210;-74
2022/02/16 12:34:05;;;;;;;0.30;0.30;;;10.90;1.00;;;;;;5052519;28;20226;-68
2022/02/16 12:36:33;;;;;;;0.70;0.60;;;11.00;1.00;;;;;;5052262;28;20657;-68
2022/02/16 12:39:06;;;;;;;0.50;0.50;;;10.90;1.00;;;;;;5053569;28;20199;-67
2022/02/16 12:41:34;;;;;;;0.50;0.50;;;11.00;1.00;;;;;;5053138;28;20254;-68
2022/02/16 12:44:06;;;;;;;1.50;0.40;;;11.00;1.00;;;;;;5052508;28;20251;-67
2022/02/16 12:46:36;;;;;;;0.57;0.57;;;11.00;1.00;;;;;;5051861;28;20281;-68
2022/02/16 12:49:04;;;;;;;1.93;0.40;;;11.10;1.00;;;;;;5052389;28;20234;-68
2022/02/16 12:51:33;;;;;;;2.13;0.63;;;11.20;1.00;;;;;;5051041;28;20619;-68
2022/02/16 12:54:09;;;;;;;0.60;0.60;;;11.20;1.00;;;;;;5052904;28;20330;-67
2022/02/16 12:56:39;;;;;;;0.77;0.40;;;11.20;1.00;;;;;;5052322;28;20667;-68
2022/02/16 12:59:22;;;;;;;0.60;0.60;;;11.40;1.00;;;;;;5058161;28;20258;-68
2022/02/16 13:01:51;;;;;;;0.97;0.60;;;11.40;1.00;;;;;;5051496;28;20234;-68
2022/02/16 13:04:18;;;;;;;1.13;0.70;;;11.40;1.00;;;;;;5052427;28;20227;-68
2022/02/16 13:06:49;;;;;;;0.50;0.50;;;11.50;1.00;;;;;;5051146;28;20696;-68
2022/02/16 13:09:19;;;;;;;0.60;0.60;;;11.60;1.00;;;;;;5054324;28;20211;-68
2022/02/16 13:11:52;;;;;;;0.60;0.50;;;11.60;1.00;;;;;;5051470;28;20207;-68
2022/02/16 13:14:21;;;;;;;0.50;0.50;;;11.60;1.00;;;;;;5050261;28;20633;-68
2022/02/16 13:16:57;;;;;;;1.57;0.67;;;11.70;1.00;;;;;;5044744;28;20837;-68
2022/02/16 13:19:48;;;;;;;1.37;0.47;;;11.70;1.00;;;;;;5048882;28;20211;-68
2022/02/16 13:22:18;;;;;;;4.03;2.57;;;11.70;1.00;;;;;;5041920;28;20558;-68
2022/02/16 13:25:08;;;;;;;0.53;0.50;;;11.70;1.00;;;;;;5049591;28;20226;-68
2022/02/16 13:27:43;;;;;;;1.60;0.50;;;11.70;1.00;;;;;;5043062;28;20203;-68
2022/02/16 13:30:13;;;;;;;1.67;0.70;;;11.70;1.00;;;;;;5045619;28;20254;-68
2022/02/16 13:32:40;;;;;;;0.73;0.57;;;11.70;1.00;;;;;;5048603;28;20828;-68
2022/02/16 13:35:29;;;;;;;0.50;0.50;;;11.70;1.00;;;;;;5044971;28;20211;-68
2022/02/16 13:38:07;;;;;;;1.67;1.47;;;11.80;1.00;;;;;;5045160;28;20206;-68
2022/02/16 13:40:49;;;;;;;0.60;0.60;;;11.70;1.00;;;;;;5048815;28;20202;-68
2022/02/16 13:43:18;;;;;;;0.37;0.37;;;11.80;1.00;;;;;;5045633;28;20199;-68
2022/02/16 13:45:46;;;;;;;0.67;0.67;;;11.80;1.00;;;;;;5050027;28;20223;-68
2022/02/16 13:48:23;;;;;;;0.90;0.70;;;11.80;1.00;;;;;;5049213;28;20645;-68
2022/02/16 13:50:51;;;;;;;0.70;0.70;;;11.80;1.00;;;;;;5032549;28;20206;-68
2022/02/16 13:53:28;;;;;;;2.43;0.70;;;11.80;1.00;;;;;;5047625;28;20573;-68
2022/02/16 13:55:57;;;;;;;0.70;0.70;;;11.90;1.00;;;;;;5038363;28;20202;-68